Time;durP1;ratioP1;P1;durP2;ratioP2;P2;SDS_P1;SDS_P2;PMS_P1;PMS_P2;Temp;Humidity;BMP_temperature;BMP_pressure;BME280_temperature;BME280_humidity;BME280_pressure;Samples;Min_cycle;Max_cycle;Signal;HPM_P1;HPM_P2
2021/05/10 00:02:03;;;;;;;1.17;1.15;;;17.10;85.10;;;;;;4888879;29;20393;-78
2021/05/10 00:04:29;;;;;;;1.30;1.20;;;17.00;85.30;;;;;;4912353;29;20419;-80
2021/05/10 00:06:55;;;;;;;1.20;1.08;;;17.00;86.20;;;;;;4896069;29;20480;-81
2021/05/10 00:09:20;;;;;;;4.30;1.10;;;16.90;86.20;;;;;;4915493;29;20408;-80
2021/05/10 00:11:46;;;;;;;0.80;0.80;;;16.90;87.00;;;;;;4908837;29;20418;-79
2021/05/10 00:14:12;;;;;;;3.30;1.30;;;16.80;86.20;;;;;;4899145;29;20756;-81
2021/05/10 00:16:38;;;;;;;0.90;0.90;;;16.80;87.40;;;;;;4898676;29;20564;-78
2021/05/10 00:19:04;;;;;;;0.90;0.90;;;16.70;86.80;;;;;;4884990;29;20402;-79
2021/05/10 00:21:29;;;;;;;0.90;0.90;;;16.70;88.00;;;;;;4894252;29;20417;-79
2021/05/10 00:23:55;;;;;;;1.10;1.00;;;16.60;88.40;;;;;;4894215;29;20411;-79
2021/05/10 00:26:21;;;;;;;0.90;0.90;;;16.60;88.90;;;;;;4874873;29;20888;-79
2021/05/10 00:28:46;;;;;;;1.00;1.00;;;16.50;89.60;;;;;;4901333;29;20454;-77
2021/05/10 00:31:12;;;;;;;1.10;1.10;;;16.50;90.50;;;;;;4895077;29;20412;-79
2021/05/10 00:33:38;;;;;;;1.15;1.15;;;16.40;90.40;;;;;;4897693;29;20443;-78
2021/05/10 00:36:04;;;;;;;0.77;0.77;;;16.30;90.60;;;;;;4857878;29;20473;-78
2021/05/10 00:38:30;;;;;;;1.00;1.00;;;16.20;91.40;;;;;;4897639;29;20467;-83
2021/05/10 00:40:55;;;;;;;1.10;0.80;;;16.10;91.20;;;;;;4894506;29;20416;-80
2021/05/10 00:43:21;;;;;;;1.10;1.10;;;16.10;92.20;;;;;;4876087;29;20548;-78
2021/05/10 00:45:47;;;;;;;1.00;1.00;;;16.00;92.50;;;;;;4897687;29;20411;-78
2021/05/10 00:48:13;;;;;;;1.58;1.35;;;16.00;92.60;;;;;;4912713;29;20406;-80
2021/05/10 00:50:39;;;;;;;0.93;0.93;;;15.90;92.30;;;;;;4879431;29;20415;-78
2021/05/10 00:53:05;;;;;;;1.00;1.00;;;15.80;93.00;;;;;;4909066;29;20416;-79
2021/05/10 00:55:32;;;;;;;1.00;1.00;;;15.80;92.90;;;;;;4912832;29;20503;-80
2021/05/10 00:58:02;;;;;;;1.63;1.10;;;15.70;93.40;;;;;;4879823;29;20429;-81
2021/05/10 01:00:35;;;;;;;1.30;1.13;;;15.70;93.90;;;;;;4884453;29;20443;-80
2021/05/10 01:03:01;;;;;;;2.57;1.17;;;15.60;94.10;;;;;;4884398;29;20505;-78
2021/05/10 01:05:27;;;;;;;0.98;0.98;;;15.50;93.80;;;;;;4903791;29;20489;-79
2021/05/10 01:07:53;;;;;;;0.93;0.93;;;15.50;93.60;;;;;;4898334;29;20416;-79
2021/05/10 01:10:20;;;;;;;0.95;0.95;;;15.50;94.00;;;;;;4881559;29;20424;-78
2021/05/10 01:12:46;;;;;;;1.65;1.05;;;15.50;94.20;;;;;;4888612;29;20482;-79
2021/05/10 01:15:14;;;;;;;1.00;1.00;;;15.50;93.80;;;;;;4880110;29;20431;-77
2021/05/10 01:17:40;;;;;;;1.20;1.10;;;15.50;93.60;;;;;;4864666;29;20416;-76
2021/05/10 01:20:10;;;;;;;3.10;1.30;;;15.50;94.00;;;;;;4898859;29;20419;-78
2021/05/10 01:22:39;;;;;;;1.30;1.20;;;15.50;93.80;;;;;;4901134;29;20415;-78
2021/05/10 01:25:05;;;;;;;2.57;1.00;;;15.50;93.50;;;;;;4900278;29;21178;-77
2021/05/10 01:27:31;;;;;;;1.23;1.13;;;15.50;93.80;;;;;;4896748;29;20785;-78
2021/05/10 01:29:57;;;;;;;3.72;1.15;;;15.50;93.90;;;;;;4893459;29;20432;-80
2021/05/10 01:32:22;;;;;;;0.97;0.97;;;15.50;94.60;;;;;;4896994;29;20902;-77
2021/05/10 01:34:48;;;;;;;1.00;1.00;;;15.50;94.20;;;;;;4885292;29;20420;-78
2021/05/10 01:37:14;;;;;;;1.00;0.97;;;15.40;93.90;;;;;;4882595;29;20447;-78
2021/05/10 01:39:39;;;;;;;0.90;0.90;;;15.40;95.10;;;;;;4900337;29;20446;-78
2021/05/10 01:42:05;;;;;;;1.03;1.03;;;15.40;95.80;;;;;;4889409;29;20922;-79
2021/05/10 01:44:31;;;;;;;0.93;0.93;;;15.30;95.80;;;;;;4891751;29;20411;-78
2021/05/10 01:46:57;;;;;;;0.88;0.88;;;15.30;96.50;;;;;;4878387;29;20413;-80
2021/05/10 01:49:23;;;;;;;0.93;0.93;;;15.30;96.90;;;;;;4913977;29;20409;-80
2021/05/10 01:51:49;;;;;;;1.23;1.17;;;15.20;97.70;;;;;;4909288;29;20843;-80
2021/05/10 01:54:15;;;;;;;1.05;1.05;;;15.10;96.80;;;;;;4916582;29;20430;-78
2021/05/10 01:56:40;;;;;;;1.00;1.00;;;15.00;97.40;;;;;;4870018;29;20956;-78
2021/05/10 01:59:06;;;;;;;1.30;1.20;;;15.00;98.00;;;;;;4900575;29;20431;-78
2021/05/10 02:01:32;;;;;;;1.77;1.20;;;14.90;98.30;;;;;;4874766;29;20478;-77
2021/05/10 02:04:00;;;;;;;0.90;0.90;;;14.90;98.20;;;;;;4895731;29;20471;-79
2021/05/10 02:06:26;;;;;;;1.08;1.08;;;14.90;98.40;;;;;;4902184;29;20435;-80
2021/05/10 02:08:51;;;;;;;1.00;1.00;;;14.80;98.40;;;;;;4914754;29;20442;-77
2021/05/10 02:11:17;;;;;;;1.20;1.10;;;14.80;98.80;;;;;;4900957;29;20430;-78
2021/05/10 02:13:43;;;;;;;1.15;1.10;;;14.80;98.50;;;;;;4905232;29;20433;-77
2021/05/10 02:16:08;;;;;;;1.40;1.20;;;14.70;99.00;;;;;;4898604;29;20433;-78
2021/05/10 02:18:35;;;;;;;1.15;1.10;;;14.70;99.30;;;;;;4888100;29;20554;-76
2021/05/10 02:21:01;;;;;;;1.20;1.10;;;14.70;98.60;;;;;;4908810;29;20412;-77
2021/05/10 02:23:28;;;;;;;3.22;1.13;;;14.70;98.90;;;;;;4875050;29;20407;-78
2021/05/10 02:25:55;;;;;;;1.88;1.00;;;14.70;98.90;;;;;;4868230;29;20447;-77
2021/05/10 02:28:25;;;;;;;1.20;1.10;;;14.70;99.80;;;;;;4860193;29;20451;-77
2021/05/10 02:30:52;;;;;;;1.15;1.10;;;14.60;99.60;;;;;;4880175;29;20415;-77
2021/05/10 02:33:19;;;;;;;1.10;1.00;;;14.60;99.90;;;;;;4874776;29;20980;-77
2021/05/10 02:35:46;;;;;;;1.02;1.02;;;14.50;99.90;;;;;;4896010;29;20546;-79
2021/05/10 02:38:13;;;;;;;1.40;1.10;;;14.50;99.90;;;;;;4896281;29;20427;-78
2021/05/10 02:40:38;;;;;;;1.30;1.20;;;14.40;99.90;;;;;;4897771;29;20471;-81
2021/05/10 02:43:04;;;;;;;1.30;1.10;;;14.40;99.90;;;;;;4898449;29;20496;-79
2021/05/10 02:45:30;;;;;;;1.00;1.00;;;14.40;99.90;;;;;;4888520;29;20432;-79
2021/05/10 02:47:56;;;;;;;0.88;0.88;;;14.30;99.90;;;;;;4853674;29;20435;-79
2021/05/10 02:50:22;;;;;;;1.40;1.30;;;14.30;99.90;;;;;;4885535;29;20420;-78
2021/05/10 02:52:48;;;;;;;2.35;1.23;;;14.30;99.90;;;;;;4902035;29;20420;-79
2021/05/10 02:55:14;;;;;;;2.17;1.48;;;14.20;99.90;;;;;;4882415;29;20424;-83
2021/05/10 02:57:40;;;;;;;1.05;1.05;;;14.10;99.90;;;;;;4891426;29;20425;-77
2021/05/10 03:00:07;;;;;;;1.30;1.20;;;14.10;99.90;;;;;;4895194;29;20408;-79
2021/05/10 03:02:33;;;;;;;1.30;1.20;;;14.10;99.90;;;;;;4894502;29;20390;-78
2021/05/10 03:04:59;;;;;;;1.20;1.13;;;14.10;99.90;;;;;;4890532;29;20424;-77
2021/05/10 03:07:24;;;;;;;1.23;1.13;;;14.10;99.90;;;;;;4900743;29;20407;-78
2021/05/10 03:15:52;;;;;;;1.20;1.20;;;14.00;99.90;;;;;;5699920;23;20424;-86
2021/05/10 03:18:17;;;;;;;1.33;1.23;;;14.00;99.90;;;;;;4902340;28;20400;-79
2021/05/10 03:20:43;;;;;;;1.30;1.20;;;13.90;99.90;;;;;;4903631;28;20768;-79
2021/05/10 03:23:09;;;;;;;1.17;1.10;;;13.90;99.90;;;;;;4920206;29;20388;-80
2021/05/10 03:25:35;;;;;;;1.35;1.25;;;14.00;99.90;;;;;;4925069;29;20418;-81
2021/05/10 03:28:01;;;;;;;1.08;1.00;;;13.90;99.90;;;;;;4917308;29;20424;-81
2021/05/10 03:30:27;;;;;;;1.43;1.13;;;13.90;99.90;;;;;;4913267;29;20413;-78
2021/05/10 03:32:53;;;;;;;1.40;1.17;;;13.70;99.90;;;;;;4931969;29;20494;-78
2021/05/10 03:35:19;;;;;;;1.02;1.02;;;13.80;99.90;;;;;;4899183;29;20414;-78
2021/05/10 03:37:45;;;;;;;0.90;0.90;;;13.80;99.90;;;;;;4909309;29;20446;-80
2021/05/10 03:40:12;;;;;;;1.00;1.00;;;13.80;99.90;;;;;;4912604;29;20417;-79
2021/05/10 03:42:38;;;;;;;1.30;1.20;;;13.70;99.90;;;;;;4908397;29;20401;-77
2021/05/10 03:45:06;;;;;;;1.13;1.13;;;13.70;99.90;;;;;;4899833;29;20408;-83
2021/05/10 03:47:41;;;;;;;1.30;1.20;;;13.90;99.90;;;;;;4904246;29;20435;-82
2021/05/10 03:50:11;;;;;;;1.42;1.33;;;13.70;99.90;;;;;;4897933;29;20423;-80
2021/05/10 03:52:37;;;;;;;1.13;1.13;;;13.70;99.90;;;;;;4896804;29;20461;-80
2021/05/10 03:55:04;;;;;;;1.00;1.00;;;13.70;99.90;;;;;;4912548;29;20520;-80
2021/05/10 03:57:30;;;;;;;1.40;1.30;;;13.70;99.90;;;;;;4897282;29;20432;-82
2021/05/10 03:59:56;;;;;;;1.40;1.30;;;13.60;99.90;;;;;;4921657;29;20815;-82
2021/05/10 04:02:22;;;;;;;1.70;1.35;;;13.70;99.90;;;;;;4905727;29;20402;-82
2021/05/10 04:07:41;;;;;;;1.38;1.27;;;13.70;99.90;;;;;;4904147;29;20407;-82
2021/05/10 04:10:37;;;;;;;1.47;1.37;;;13.70;99.90;;;;;;4902686;28;20943;-81
2021/05/10 04:15:47;;;;;;;1.20;1.10;;;13.90;99.90;;;;;;4926098;29;20486;-89
2021/05/10 04:18:13;;;;;;;1.15;1.15;;;13.90;99.90;;;;;;4896234;29;20454;-83
2021/05/10 04:20:39;;;;;;;1.13;1.13;;;13.90;99.90;;;;;;4923620;29;20473;-84
2021/05/10 04:23:05;;;;;;;1.00;1.00;;;13.80;99.90;;;;;;4894795;29;20420;-80
2021/05/10 04:25:30;;;;;;;1.25;1.17;;;13.80;99.90;;;;;;4875068;29;20411;-78
2021/05/10 04:27:57;;;;;;;1.10;1.10;;;13.80;99.90;;;;;;4869898;29;20451;-80
2021/05/10 04:30:23;;;;;;;1.40;1.30;;;13.80;99.90;;;;;;4883530;29;20441;-80
2021/05/10 04:32:49;;;;;;;1.45;1.30;;;13.80;99.90;;;;;;4904753;29;20418;-81
2021/05/10 04:35:15;;;;;;;1.60;1.50;;;13.90;99.90;;;;;;4910121;29;20409;-85
2021/05/10 04:37:41;;;;;;;1.17;1.10;;;13.90;99.90;;;;;;4905494;29;20498;-82
2021/05/10 04:40:07;;;;;;;1.75;1.58;;;14.00;99.90;;;;;;4902011;29;20417;-86
2021/05/10 04:42:33;;;;;;;2.93;1.60;;;14.10;99.90;;;;;;4898095;29;20410;-86
2021/05/10 04:44:59;;;;;;;1.67;1.52;;;14.00;99.90;;;;;;4902303;29;20417;-82
2021/05/10 04:47:36;;;;;;;1.60;1.50;;;14.10;99.90;;;;;;4884702;29;20924;-85
2021/05/10 04:50:04;;;;;;;1.75;1.65;;;14.20;99.90;;;;;;4871653;29;20461;-85
2021/05/10 04:52:30;;;;;;;2.07;1.80;;;14.30;99.90;;;;;;4909046;29;20414;-88
2021/05/10 04:54:56;;;;;;;1.63;1.52;;;14.40;99.90;;;;;;4897945;29;20475;-84
2021/05/10 04:57:22;;;;;;;1.90;1.80;;;14.60;99.90;;;;;;4898497;29;20453;-84
2021/05/10 04:59:48;;;;;;;1.73;1.63;;;14.70;99.90;;;;;;4900988;29;20396;-82
2021/05/10 05:02:14;;;;;;;2.00;1.80;;;14.70;99.90;;;;;;4914978;29;20410;-83
2021/05/10 05:04:44;;;;;;;1.60;1.50;;;15.10;99.90;;;;;;4884109;29;20405;-81
2021/05/10 05:07:12;;;;;;;1.70;1.60;;;15.10;99.90;;;;;;4902047;29;20404;-81
2021/05/10 05:09:40;;;;;;;1.63;1.50;;;15.20;99.90;;;;;;4893011;29;20551;-83
2021/05/10 05:12:07;;;;;;;1.83;1.70;;;15.30;99.90;;;;;;4899510;29;20393;-81
2021/05/10 05:14:34;;;;;;;2.33;1.80;;;15.40;99.90;;;;;;4878503;29;20411;-81
2021/05/10 05:17:01;;;;;;;2.33;1.92;;;15.60;99.90;;;;;;4876750;29;20423;-80
2021/05/10 05:19:31;;;;;;;1.98;1.85;;;15.80;99.90;;;;;;4874312;29;20426;-81
2021/05/10 05:21:59;;;;;;;1.70;1.60;;;15.90;99.90;;;;;;4879983;24;21109;-75
2021/05/10 05:24:24;;;;;;;1.83;1.70;;;16.00;99.90;;;;;;4874116;29;20492;-77
2021/05/10 05:26:50;;;;;;;1.90;1.70;;;16.20;99.90;;;;;;4885245;29;20440;-76
2021/05/10 05:29:19;;;;;;;2.15;1.80;;;16.30;99.90;;;;;;4890528;29;20816;-76
2021/05/10 05:31:45;;;;;;;1.80;1.70;;;16.40;99.90;;;;;;4848666;29;20437;-77
2021/05/10 05:34:11;;;;;;;1.90;1.80;;;16.50;99.90;;;;;;4893039;29;20417;-76
2021/05/10 05:36:36;;;;;;;2.20;1.53;;;16.50;99.90;;;;;;4892312;29;20423;-75
2021/05/10 05:39:06;;;;;;;1.50;1.40;;;16.50;99.90;;;;;;4889623;29;20939;-78
2021/05/10 05:41:31;;;;;;;1.75;1.40;;;16.60;99.90;;;;;;4843506;29;20418;-76
2021/05/10 05:43:57;;;;;;;2.00;1.80;;;16.80;99.90;;;;;;4880989;29;20401;-77
2021/05/10 05:46:27;;;;;;;1.65;1.55;;;16.80;99.90;;;;;;4889365;29;20405;-76
2021/05/10 05:48:54;;;;;;;2.65;1.45;;;16.80;99.90;;;;;;4861784;29;20401;-76
2021/05/10 05:51:19;;;;;;;2.05;1.63;;;16.90;99.90;;;;;;4873034;29;20403;-74
2021/05/10 05:53:45;;;;;;;1.60;1.50;;;17.00;99.90;;;;;;4888493;29;20418;-74
2021/05/10 05:56:11;;;;;;;1.48;1.38;;;17.10;99.90;;;;;;4868577;29;20488;-74
2021/05/10 05:58:36;;;;;;;1.60;1.42;;;17.20;99.90;;;;;;4891143;29;20498;-75
2021/05/10 06:01:02;;;;;;;1.60;1.50;;;17.30;99.90;;;;;;4876305;29;20397;-75
2021/05/10 06:03:28;;;;;;;2.20;1.70;;;17.30;99.90;;;;;;4880234;29;20413;-76
2021/05/10 06:05:54;;;;;;;2.40;1.55;;;17.50;99.90;;;;;;4878898;29;20473;-77
2021/05/10 06:08:19;;;;;;;3.07;1.60;;;17.60;99.90;;;;;;4896039;29;20401;-76
2021/05/10 06:10:46;;;;;;;1.90;1.63;;;17.70;99.90;;;;;;4898239;29;20450;-77
2021/05/10 06:13:12;;;;;;;1.67;1.33;;;17.80;99.90;;;;;;4895638;29;20410;-76
2021/05/10 06:15:38;;;;;;;1.60;1.50;;;18.00;99.90;;;;;;4896433;29;20421;-76
2021/05/10 06:18:06;;;;;;;2.97;1.47;;;18.00;99.90;;;;;;4868859;29;20442;-76
2021/05/10 06:20:32;;;;;;;2.40;1.30;;;18.10;99.90;;;;;;4880198;29;20422;-77
2021/05/10 06:22:57;;;;;;;1.38;1.27;;;18.30;99.90;;;;;;4890727;29;20405;-76
2021/05/10 06:25:23;;;;;;;1.37;1.27;;;18.40;99.90;;;;;;4895449;29;20443;-76
2021/05/10 06:27:50;;;;;;;1.50;1.40;;;18.60;99.90;;;;;;4880393;29;20414;-76
2021/05/10 06:30:16;;;;;;;1.20;1.20;;;18.90;98.90;;;;;;4881468;29;20836;-77
2021/05/10 06:32:43;;;;;;;1.80;1.50;;;19.10;98.90;;;;;;4914396;29;20412;-75
2021/05/10 06:35:09;;;;;;;2.00;1.45;;;19.20;97.10;;;;;;4886759;29;20479;-76
2021/05/10 06:37:35;;;;;;;1.38;1.27;;;19.20;97.20;;;;;;4874568;29;20405;-79
2021/05/10 06:40:01;;;;;;;1.00;1.00;;;19.30;96.40;;;;;;4884973;29;20800;-76
2021/05/10 06:42:27;;;;;;;1.30;1.20;;;19.40;95.10;;;;;;4891765;29;20436;-76
2021/05/10 06:44:54;;;;;;;1.33;1.25;;;19.40;95.80;;;;;;4881867;29;20480;-76
2021/05/10 06:47:20;;;;;;;1.70;1.45;;;19.60;95.00;;;;;;4878594;29;20399;-76
2021/05/10 06:49:46;;;;;;;1.52;1.30;;;19.70;93.60;;;;;;4862880;29;20410;-76
2021/05/10 06:52:11;;;;;;;1.50;1.40;;;19.70;91.60;;;;;;4865827;29;20399;-77
2021/05/10 06:54:37;;;;;;;1.10;1.10;;;19.80;91.10;;;;;;4878892;29;20445;-76
2021/05/10 06:57:03;;;;;;;1.27;1.17;;;19.90;91.20;;;;;;4880298;29;20419;-76
2021/05/10 06:59:28;;;;;;;1.20;1.10;;;20.20;89.70;;;;;;4898872;29;20402;-77
2021/05/10 07:01:54;;;;;;;1.55;1.30;;;20.30;88.60;;;;;;4896799;29;20476;-76
2021/05/10 07:04:20;;;;;;;1.93;1.17;;;20.40;84.40;;;;;;4883634;29;20462;-76
2021/05/10 07:06:46;;;;;;;1.77;1.13;;;20.40;85.60;;;;;;4833188;29;20413;-76
2021/05/10 07:09:11;;;;;;;1.00;1.00;;;20.60;86.40;;;;;;4898171;29;20409;-76
2021/05/10 07:11:37;;;;;;;1.80;1.30;;;20.80;84.20;;;;;;4881728;29;20428;-77
2021/05/10 07:14:03;;;;;;;2.70;1.30;;;20.80;81.50;;;;;;4896810;29;20927;-76
2021/05/10 07:16:29;;;;;;;1.00;1.00;;;20.80;81.90;;;;;;4896718;29;20413;-76
2021/05/10 07:18:55;;;;;;;1.10;1.10;;;20.80;83.90;;;;;;4876661;29;20442;-76
2021/05/10 07:21:23;;;;;;;1.30;1.20;;;20.80;80.20;;;;;;4880267;29;20422;-76
2021/05/10 07:23:49;;;;;;;1.20;1.20;;;21.00;78.60;;;;;;4865813;29;20421;-76
2021/05/10 07:26:14;;;;;;;1.50;1.40;;;21.00;80.30;;;;;;4881660;29;20413;-76
2021/05/10 07:28:40;;;;;;;1.00;1.00;;;21.10;79.20;;;;;;4897053;29;20820;-77
2021/05/10 07:31:06;;;;;;;1.30;1.20;;;21.30;79.00;;;;;;4865065;29;20423;-77
2021/05/10 07:33:31;;;;;;;1.60;1.20;;;21.40;76.40;;;;;;4881399;29;20536;-76
2021/05/10 07:35:57;;;;;;;1.20;1.10;;;21.40;77.00;;;;;;4872361;29;20521;-76
2021/05/10 07:38:23;;;;;;;1.40;1.20;;;21.50;77.20;;;;;;4897044;29;20451;-76
2021/05/10 07:40:48;;;;;;;1.30;1.17;;;21.80;80.60;;;;;;4912874;29;20405;-76
2021/05/10 07:43:14;;;;;;;1.13;1.03;;;21.90;76.20;;;;;;4887523;29;20480;-76
2021/05/10 07:45:40;;;;;;;1.30;1.20;;;22.00;76.00;;;;;;4895626;29;20405;-77
2021/05/10 07:48:08;;;;;;;1.00;1.00;;;22.10;74.80;;;;;;4896441;29;20881;-77
2021/05/10 07:50:35;;;;;;;1.35;1.25;;;22.20;72.60;;;;;;4895757;29;20820;-76
2021/05/10 07:53:01;;;;;;;1.10;0.93;;;22.30;71.40;;;;;;4874062;29;20413;-76
2021/05/10 07:55:26;;;;;;;1.30;1.20;;;22.50;74.70;;;;;;4880706;29;20847;-77
2021/05/10 07:57:55;;;;;;;1.10;1.10;;;22.70;76.20;;;;;;4880131;29;20504;-76
2021/05/10 08:00:29;;;;;;;1.48;1.27;;;22.90;75.00;;;;;;4881699;29;20893;-76
2021/05/10 08:03:17;;;;;;;1.60;1.30;;;23.00;75.20;;;;;;4873519;29;20440;-76
2021/05/10 08:05:48;;;;;;;1.67;1.30;;;23.30;73.00;;;;;;4880347;29;20910;-76
2021/05/10 08:08:16;;;;;;;1.17;1.17;;;23.30;71.70;;;;;;4877926;29;20430;-76
2021/05/10 08:10:45;;;;;;;1.20;1.10;;;23.40;67.90;;;;;;4879683;29;20757;-77
2021/05/10 08:13:10;;;;;;;1.25;1.15;;;23.50;70.70;;;;;;4875910;29;20496;-77
2021/05/10 08:15:37;;;;;;;1.50;1.20;;;23.80;72.50;;;;;;4912026;29;20959;-77
2021/05/10 08:18:08;;;;;;;1.23;0.95;;;23.80;69.20;;;;;;4879047;29;20923;-77
2021/05/10 08:20:34;;;;;;;1.17;1.10;;;24.00;72.20;;;;;;4886445;29;20412;-77
2021/05/10 08:22:59;;;;;;;1.10;1.10;;;24.30;68.40;;;;;;4880884;29;20406;-76
2021/05/10 08:25:25;;;;;;;1.45;1.35;;;24.30;68.70;;;;;;4896111;29;20413;-76
2021/05/10 08:27:51;;;;;;;3.93;1.30;;;24.30;68.70;;;;;;4896128;29;20489;-76
2021/05/10 08:30:17;;;;;;;1.07;1.07;;;24.10;64.10;;;;;;4887279;29;20922;-76
2021/05/10 08:32:43;;;;;;;0.90;0.90;;;24.20;68.90;;;;;;4898269;29;20446;-76
2021/05/10 08:35:09;;;;;;;1.10;1.08;;;24.30;67.80;;;;;;4914825;29;20399;-75
2021/05/10 08:37:36;;;;;;;1.20;1.10;;;24.30;66.80;;;;;;4922284;29;20436;-76
2021/05/10 08:40:02;;;;;;;1.38;1.27;;;24.50;67.80;;;;;;4917076;29;20403;-76
2021/05/10 08:42:27;;;;;;;1.00;0.93;;;24.60;64.80;;;;;;4900203;29;20405;-76
2021/05/10 08:44:53;;;;;;;1.30;1.20;;;24.70;64.40;;;;;;4894887;29;20493;-77
2021/05/10 08:47:20;;;;;;;1.98;1.17;;;24.80;64.20;;;;;;4895231;29;20916;-75
2021/05/10 08:49:46;;;;;;;1.30;1.20;;;24.90;65.50;;;;;;4861346;29;20414;-75
2021/05/10 08:52:12;;;;;;;1.30;1.20;;;25.10;66.10;;;;;;4877118;29;20411;-75
2021/05/10 08:54:38;;;;;;;1.00;1.00;;;25.30;66.00;;;;;;4892087;29;20547;-76
2021/05/10 08:57:04;;;;;;;1.15;1.08;;;25.60;63.80;;;;;;4845663;29;20438;-77
2021/05/10 08:59:30;;;;;;;0.90;0.90;;;26.00;63.50;;;;;;4873942;29;20450;-77
2021/05/10 09:01:59;;;;;;;1.20;1.10;;;26.40;63.60;;;;;;4877716;29;20431;-75
2021/05/10 09:04:33;;;;;;;1.42;1.33;;;26.60;62.70;;;;;;4860951;29;20430;-76
2021/05/10 09:07:19;;;;;;;1.20;1.10;;;26.50;60.00;;;;;;4870734;29;20734;-77
2021/05/10 09:09:55;;;;;;;1.13;1.10;;;26.50;60.70;;;;;;4861264;29;21001;-76
2021/05/10 09:12:22;;;;;;;1.00;1.00;;;26.40;62.60;;;;;;4876493;29;20913;-77
2021/05/10 09:14:48;;;;;;;1.17;1.13;;;26.60;60.00;;;;;;4877100;29;20467;-77
2021/05/10 09:17:14;;;;;;;1.50;1.40;;;26.70;61.60;;;;;;4861301;29;20431;-76
2021/05/10 09:19:45;;;;;;;1.17;1.08;;;26.80;57.90;;;;;;4861002;29;20399;-76
2021/05/10 09:22:11;;;;;;;1.00;1.00;;;26.80;61.40;;;;;;4860879;29;20474;-76
2021/05/10 09:24:47;;;;;;;1.38;1.27;;;27.10;61.40;;;;;;4861216;29;20410;-77
2021/05/10 09:27:17;;;;;;;1.17;1.10;;;27.20;59.10;;;;;;4866764;29;20415;-76
2021/05/10 09:29:42;;;;;;;1.27;1.20;;;27.10;58.90;;;;;;4860794;29;20482;-77
2021/05/10 09:32:10;;;;;;;1.27;1.17;;;27.20;59.40;;;;;;4848194;29;20434;-76
2021/05/10 09:34:36;;;;;;;1.30;1.20;;;27.40;59.50;;;;;;4860624;29;20436;-77
2021/05/10 09:37:01;;;;;;;1.00;0.95;;;27.30;60.30;;;;;;4860638;29;20460;-75
2021/05/10 09:39:35;;;;;;;1.20;1.10;;;27.40;58.70;;;;;;4870626;29;20435;-76
2021/05/10 09:42:02;;;;;;;1.20;1.10;;;27.40;57.90;;;;;;4879313;29;20414;-76
2021/05/10 09:45:11;;;;;;;1.20;1.20;;;27.30;57.40;;;;;;4863887;29;20410;-76
2021/05/10 09:47:40;;;;;;;1.58;1.48;;;27.10;58.30;;;;;;4894358;29;20905;-78
2021/05/10 09:50:06;;;;;;;1.90;1.53;;;27.40;57.40;;;;;;4865316;29;20462;-77
2021/05/10 09:52:33;;;;;;;1.27;1.17;;;27.50;56.10;;;;;;4867325;29;20464;-77
2021/05/10 09:55:00;;;;;;;1.30;1.20;;;27.40;56.60;;;;;;4865900;29;20415;-78
2021/05/10 09:57:26;;;;;;;1.30;1.20;;;27.60;59.80;;;;;;4865392;29;20419;-77
2021/05/10 10:00:17;;;;;;;1.30;1.20;;;28.00;59.80;;;;;;4858899;29;20489;-76
2021/05/10 10:02:43;;;;;;;1.08;1.08;;;28.40;56.40;;;;;;4890059;29;20417;-76
2021/05/10 10:05:09;;;;;;;1.30;1.20;;;28.70;58.70;;;;;;4882994;29;20504;-76
2021/05/10 10:07:38;;;;;;;1.10;1.00;;;28.90;55.00;;;;;;4883380;29;20962;-79
2021/05/10 10:10:05;;;;;;;1.15;1.10;;;29.00;54.70;;;;;;4867554;29;20837;-76
2021/05/10 10:12:31;;;;;;;1.40;1.30;;;29.10;54.90;;;;;;4883300;29;20395;-77
2021/05/10 10:14:57;;;;;;;1.07;1.07;;;29.30;53.90;;;;;;4827391;29;20416;-77
2021/05/10 10:17:24;;;;;;;1.30;1.20;;;29.30;52.80;;;;;;4830326;29;20753;-77
2021/05/10 10:19:50;;;;;;;1.55;1.38;;;29.60;54.80;;;;;;4875705;29;20442;-77
2021/05/10 10:22:17;;;;;;;1.40;1.30;;;29.80;54.00;;;;;;4849286;29;20415;-76
2021/05/10 10:24:42;;;;;;;1.08;1.08;;;30.10;53.90;;;;;;4849641;29;20400;-78
2021/05/10 10:27:10;;;;;;;1.27;1.10;;;30.40;51.90;;;;;;4849008;29;20399;-77
2021/05/10 10:29:41;;;;;;;1.30;1.20;;;30.50;51.80;;;;;;4828761;29;20465;-77
2021/05/10 10:32:07;;;;;;;1.20;1.10;;;30.50;51.10;;;;;;4874513;29;20438;-77
2021/05/10 10:34:35;;;;;;;1.23;1.13;;;30.60;51.40;;;;;;4864028;29;20434;-77
2021/05/10 10:37:02;;;;;;;1.30;1.20;;;30.70;51.30;;;;;;4847780;29;20475;-77
2021/05/10 10:39:30;;;;;;;1.17;1.13;;;30.70;49.70;;;;;;4848850;29;20850;-77
2021/05/10 10:42:03;;;;;;;1.70;1.20;;;30.70;50.80;;;;;;4863964;29;20469;-78
2021/05/10 10:44:41;;;;;;;1.05;1.05;;;30.90;52.00;;;;;;4863882;29;20458;-77
2021/05/10 10:47:13;;;;;;;0.82;0.82;;;31.10;50.00;;;;;;4861465;29;20407;-78
2021/05/10 10:49:43;;;;;;;0.98;0.98;;;31.20;50.20;;;;;;4858795;29;20500;-77
2021/05/10 10:52:17;;;;;;;1.20;1.10;;;31.50;50.50;;;;;;4896997;29;20422;-78
2021/05/10 10:54:43;;;;;;;4.00;1.23;;;31.80;50.40;;;;;;4912324;29;20433;-77
2021/05/10 10:57:08;;;;;;;1.23;1.13;;;31.70;49.70;;;;;;4874841;29;20434;-77
2021/05/10 10:59:36;;;;;;;1.53;1.30;;;32.00;49.40;;;;;;4880718;29;20500;-77
2021/05/10 11:02:24;;;;;;;1.20;1.10;;;32.30;49.30;;;;;;4897133;29;20439;-78
2021/05/10 11:05:09;;;;;;;1.60;1.50;;;32.50;48.50;;;;;;4877084;29;20399;-77
2021/05/10 11:08:00;;;;;;;1.33;1.17;;;32.40;48.20;;;;;;4879900;29;21032;-77
2021/05/10 11:10:55;;;;;;;1.10;1.10;;;32.60;47.60;;;;;;4878306;29;20889;-78
2021/05/10 11:13:28;;;;;;;1.20;1.10;;;32.60;47.80;;;;;;4887224;29;20394;-78
2021/05/10 11:15:57;;;;;;;1.60;1.10;;;32.90;48.70;;;;;;4878486;29;20431;-78
2021/05/10 11:18:47;;;;;;;1.10;1.10;;;33.20;46.20;;;;;;4879422;29;20864;-77
2021/05/10 11:21:22;;;;;;;1.40;1.30;;;33.20;46.30;;;;;;4878118;29;20580;-78
2021/05/10 11:23:51;;;;;;;1.00;1.00;;;33.00;46.50;;;;;;4879195;29;20485;-78
2021/05/10 11:26:46;;;;;;;1.08;1.00;;;33.10;45.50;;;;;;4879083;29;20459;-78
2021/05/10 11:29:34;;;;;;;1.10;1.10;;;33.10;47.70;;;;;;4873048;29;20402;-78
2021/05/10 11:32:08;;;;;;;1.00;1.00;;;33.40;46.50;;;;;;4886896;29;20419;-78
2021/05/10 11:34:38;;;;;;;1.30;1.20;;;33.50;45.30;;;;;;4908836;29;20403;-78
2021/05/10 11:37:04;;;;;;;1.10;1.03;;;33.70;44.80;;;;;;4894705;29;20450;-78
2021/05/10 11:39:31;;;;;;;1.10;1.10;;;33.60;43.30;;;;;;4879217;29;20413;-78
2021/05/10 11:41:59;;;;;;;1.40;1.30;;;33.50;43.90;;;;;;4877724;29;20433;-78
2021/05/10 11:44:29;;;;;;;1.33;1.23;;;33.90;47.20;;;;;;4913788;29;21041;-77
2021/05/10 11:46:56;;;;;;;1.20;1.10;;;34.20;43.00;;;;;;4894310;29;20557;-78
2021/05/10 11:49:26;;;;;;;1.10;1.00;;;34.20;43.60;;;;;;4878484;29;20930;-78
2021/05/10 11:51:52;;;;;;;1.30;1.20;;;34.60;44.40;;;;;;4888601;29;20403;-78
2021/05/10 11:54:17;;;;;;;1.15;1.15;;;34.70;44.80;;;;;;4890780;29;20417;-79
2021/05/10 11:56:46;;;;;;;1.00;1.00;;;34.70;41.00;;;;;;4830561;29;20853;-78
2021/05/10 12:02:08;;;;;;;1.20;1.10;;;34.50;42.20;;;;;;4879511;29;20385;-80
2021/05/10 12:09:42;;;;;;;1.20;1.10;;;33.90;44.10;;;;;;4918065;29;20399;-79
2021/05/10 12:12:14;;;;;;;1.10;1.10;;;34.40;47.20;;;;;;4910956;29;20425;-80
2021/05/10 12:14:40;;;;;;;0.88;0.88;;;34.70;42.70;;;;;;4913951;29;20409;-81
2021/05/10 12:17:06;;;;;;;1.08;1.08;;;34.90;43.80;;;;;;4885253;29;20395;-78
2021/05/10 12:19:51;;;;;;;1.87;1.23;;;35.10;42.20;;;;;;4909492;29;20429;-80
2021/05/10 12:22:17;;;;;;;1.20;1.20;;;35.00;43.20;;;;;;4911288;29;20413;-80
2021/05/10 12:24:59;;;;;;;1.20;1.15;;;35.10;43.70;;;;;;4894513;29;20484;-78
2021/05/10 12:27:36;;;;;;;1.30;1.13;;;34.90;41.80;;;;;;4875795;29;20462;-79
2021/05/10 12:30:04;;;;;;;1.10;1.10;;;34.40;41.70;;;;;;4909520;29;20437;-80
2021/05/10 12:32:29;;;;;;;1.25;1.20;;;34.50;42.60;;;;;;4875081;29;20399;-80
2021/05/10 12:34:55;;;;;;;1.63;1.33;;;34.20;43.70;;;;;;4875622;29;21118;-80
2021/05/10 12:37:21;;;;;;;1.00;1.00;;;34.30;43.40;;;;;;4869454;29;20420;-80
2021/05/10 12:39:47;;;;;;;1.05;1.05;;;34.30;43.10;;;;;;4897148;29;20465;-80
2021/05/10 12:42:17;;;;;;;2.60;1.20;;;34.60;41.20;;;;;;4880456;29;21688;-80
2021/05/10 12:44:56;;;;;;;1.50;1.40;;;34.60;42.00;;;;;;4879315;29;20398;-80
2021/05/10 12:47:45;;;;;;;1.30;1.20;;;34.70;42.10;;;;;;4888879;29;20428;-80
2021/05/10 12:50:31;;;;;;;1.15;1.10;;;34.90;42.00;;;;;;4894828;29;20576;-80
2021/05/10 12:52:56;;;;;;;1.20;1.10;;;35.30;42.10;;;;;;4882813;29;20465;-80
2021/05/10 12:55:22;;;;;;;1.00;1.00;;;35.50;41.20;;;;;;4912037;29;20403;-80
2021/05/10 12:57:49;;;;;;;1.20;1.10;;;35.90;40.90;;;;;;4879079;29;20471;-79
2021/05/10 13:00:35;;;;;;;1.30;1.20;;;36.20;40.50;;;;;;4885760;29;20780;-79
2021/05/10 13:03:01;;;;;;;3.28;1.25;;;36.50;41.20;;;;;;4893475;29;20420;-78
2021/05/10 13:05:35;;;;;;;1.10;1.00;;;36.60;40.10;;;;;;4876261;29;20809;-80
2021/05/10 13:08:02;;;;;;;1.15;1.05;;;36.90;40.10;;;;;;4862248;29;20405;-79
2021/05/10 13:10:27;;;;;;;1.38;1.27;;;37.00;40.00;;;;;;4890680;29;20432;-79
2021/05/10 13:12:54;;;;;;;1.17;1.10;;;36.90;38.90;;;;;;4863140;29;20509;-79